Time;durP1;ratioP1;P1;durP2;ratioP2;P2;SDS_P1;SDS_P2;PMS_P1;PMS_P2;Temp;Humidity;BMP_temperature;BMP_pressure;BME280_temperature;BME280_humidity;BME280_pressure;Samples;Min_cycle;Max_cycle;Signal;HPM_P1;HPM_P2
2022/08/25 00:01:13;;;;;;;7.60;5.43;;;21.90;99.90;;;;;;4995407;28;20126;-79
2022/08/25 00:03:42;;;;;;;9.10;5.60;;;21.90;99.90;;;;;;4988086;28;20066;-79
2022/08/25 00:06:08;;;;;;;8.48;5.38;;;21.80;99.90;;;;;;4995393;28;20426;-79
2022/08/25 00:08:36;;;;;;;6.43;5.25;;;21.80;99.90;;;;;;4993711;28;20061;-79
2022/08/25 00:11:05;;;;;;;6.50;4.82;;;21.80;99.90;;;;;;4994394;28;20121;-78
2022/08/25 00:13:30;;;;;;;6.75;4.78;;;21.70;99.90;;;;;;5010427;28;20046;-78
2022/08/25 00:15:56;;;;;;;7.45;5.20;;;21.70;99.90;;;;;;4989701;28;20454;-78
2022/08/25 00:18:22;;;;;;;7.32;4.95;;;21.70;99.90;;;;;;4995325;28;20034;-79
2022/08/25 00:20:48;;;;;;;7.05;4.82;;;21.70;99.90;;;;;;4995512;28;20050;-78
2022/08/25 00:23:14;;;;;;;11.32;4.60;;;21.60;99.90;;;;;;5083949;28;20034;-78
2022/08/25 00:25:39;;;;;;;7.60;5.00;;;21.60;99.90;;;;;;4995797;28;20426;-79
2022/08/25 00:28:05;;;;;;;8.27;5.10;;;21.60;99.90;;;;;;4996683;28;20493;-79
2022/08/25 00:30:30;;;;;;;9.57;5.28;;;21.60;99.90;;;;;;4994825;28;20050;-79
2022/08/25 00:32:56;;;;;;;7.70;4.72;;;21.60;99.90;;;;;;4994462;28;20046;-79
2022/08/25 00:35:23;;;;;;;7.93;4.43;;;21.50;99.90;;;;;;4994952;28;20077;-79
2022/08/25 00:37:49;;;;;;;7.30;5.15;;;21.50;99.90;;;;;;4997041;28;20042;-79
2022/08/25 00:40:15;;;;;;;6.47;5.00;;;21.50;99.90;;;;;;5025219;28;20051;-79
2022/08/25 00:42:40;;;;;;;7.25;5.00;;;21.50;99.90;;;;;;5018428;28;20050;-79
2022/08/25 00:45:08;;;;;;;11.07;5.13;;;21.40;99.90;;;;;;4996335;28;20050;-79
2022/08/25 00:47:34;;;;;;;7.80;4.90;;;21.40;99.90;;;;;;4997393;28;20506;-79
2022/08/25 00:50:04;;;;;;;6.68;4.43;;;21.40;99.90;;;;;;4991941;28;20100;-79
2022/08/25 00:52:53;;;;;;;6.00;4.65;;;21.40;99.90;;;;;;4996193;28;20072;-79
2022/08/25 00:55:33;;;;;;;7.45;4.53;;;21.30;99.90;;;;;;4990693;28;20068;-79
2022/08/25 00:58:06;;;;;;;7.32;4.50;;;21.30;99.90;;;;;;4994933;28;20069;-78
2022/08/25 01:00:41;;;;;;;6.53;4.75;;;21.30;99.90;;;;;;4986284;28;20051;-79
2022/08/25 01:03:08;;;;;;;6.32;4.47;;;21.30;99.90;;;;;;4988141;28;20490;-79
2022/08/25 01:05:34;;;;;;;8.85;4.93;;;21.20;99.90;;;;;;4995211;28;20096;-79
2022/08/25 01:08:02;;;;;;;8.43;5.07;;;21.20;99.90;;;;;;4995297;28;20098;-79
2022/08/25 01:10:30;;;;;;;6.20;4.05;;;21.20;99.90;;;;;;5027686;22;20518;-64
2022/08/25 01:13:01;;;;;;;6.50;4.35;;;21.10;99.90;;;;;;5048231;28;20037;-64
2022/08/25 01:15:27;;;;;;;9.07;4.50;;;21.10;99.90;;;;;;5045188;28;20051;-63
2022/08/25 01:17:56;;;;;;;6.45;4.15;;;21.10;99.90;;;;;;5050659;28;20063;-62
2022/08/25 01:20:26;;;;;;;9.73;4.53;;;21.10;99.90;;;;;;5044470;28;20509;-62
2022/08/25 01:22:52;;;;;;;10.18;4.65;;;21.10;99.90;;;;;;5046712;28;20556;-62
2022/08/25 01:25:42;;;;;;;7.15;4.60;;;21.00;99.90;;;;;;5049787;28;20121;-62
2022/08/25 01:28:08;;;;;;;5.82;4.00;;;21.00;99.90;;;;;;5026866;28;20402;-62
2022/08/25 01:30:35;;;;;;;7.90;4.38;;;21.00;99.90;;;;;;5037645;28;20116;-62
2022/08/25 01:33:05;;;;;;;7.47;4.40;;;21.00;99.90;;;;;;5045094;28;20045;-66
2022/08/25 01:35:32;;;;;;;6.38;4.40;;;21.00;99.90;;;;;;5046556;28;20037;-66
2022/08/25 01:38:02;;;;;;;8.02;4.00;;;21.00;99.90;;;;;;5046183;28;20116;-63
2022/08/25 01:40:28;;;;;;;4.90;3.78;;;21.00;99.90;;;;;;5041247;28;20069;-63
2022/08/25 01:43:01;;;;;;;6.55;4.18;;;20.90;99.90;;;;;;5027548;28;20075;-64
2022/08/25 01:45:27;;;;;;;6.57;3.95;;;20.90;99.90;;;;;;5022628;28;20056;-63
2022/08/25 01:47:53;;;;;;;6.00;4.05;;;20.90;99.90;;;;;;5040856;28;20033;-63
2022/08/25 01:50:19;;;;;;;5.22;3.85;;;20.90;99.90;;;;;;5040509;28;20498;-63
2022/08/25 01:53:05;;;;;;;5.72;3.90;;;20.80;99.90;;;;;;5041845;28;20045;-63
2022/08/25 01:55:50;;;;;;;7.13;3.97;;;20.80;99.90;;;;;;5028008;28;20041;-66
2022/08/25 01:58:17;;;;;;;9.02;4.22;;;20.80;99.90;;;;;;5022121;28;20086;-64
2022/08/25 02:00:48;;;;;;;6.57;4.00;;;20.80;99.90;;;;;;5043295;28;20248;-66
2022/08/25 02:03:15;;;;;;;5.70;4.10;;;20.80;99.90;;;;;;5041778;28;20049;-63
2022/08/25 02:05:41;;;;;;;6.03;3.65;;;20.70;99.90;;;;;;5024461;28;20364;-64
2022/08/25 02:08:07;;;;;;;6.70;3.95;;;20.70;99.90;;;;;;5025411;28;20047;-64
2022/08/25 02:10:34;;;;;;;4.72;3.55;;;20.70;99.90;;;;;;5019763;28;20041;-64
2022/08/25 02:12:59;;;;;;;4.97;3.83;;;20.60;99.90;;;;;;5023079;28;20049;-64
2022/08/25 02:15:25;;;;;;;6.82;3.75;;;20.70;99.90;;;;;;5037333;28;20106;-64
2022/08/25 02:17:50;;;;;;;5.30;3.60;;;20.60;99.90;;;;;;5024187;28;20076;-64
2022/08/25 02:20:16;;;;;;;6.75;3.53;;;20.60;99.90;;;;;;5044606;28;20040;-64
2022/08/25 02:22:42;;;;;;;6.88;3.83;;;20.60;99.90;;;;;;5040489;28;20117;-67
2022/08/25 02:25:09;;;;;;;7.65;4.15;;;20.60;99.90;;;;;;5025684;28;20048;-67
2022/08/25 02:27:35;;;;;;;9.30;4.00;;;20.60;99.90;;;;;;5029611;28;20037;-64
2022/08/25 02:30:01;;;;;;;5.20;3.50;;;20.60;99.90;;;;;;5049142;28;20537;-65
2022/08/25 02:32:26;;;;;;;4.40;3.58;;;20.50;99.90;;;;;;5023833;28;20060;-65
2022/08/25 02:34:52;;;;;;;6.65;3.75;;;20.50;99.90;;;;;;5038071;28;20037;-67
2022/08/25 02:37:19;;;;;;;7.13;3.80;;;20.50;99.90;;;;;;5050900;28;20476;-64
2022/08/25 02:39:45;;;;;;;11.25;3.70;;;20.40;99.90;;;;;;5028929;28;20060;-65
2022/08/25 02:42:11;;;;;;;7.68;3.80;;;20.40;99.90;;;;;;5053519;28;20044;-66
2022/08/25 02:44:36;;;;;;;6.55;3.55;;;20.40;99.90;;;;;;5052404;28;20502;-67
2022/08/25 02:47:02;;;;;;;6.82;3.80;;;20.40;99.90;;;;;;5031635;28;20037;-64
2022/08/25 02:49:29;;;;;;;6.35;3.42;;;20.40;99.90;;;;;;5049653;28;20120;-64
2022/08/25 02:51:55;;;;;;;7.53;3.55;;;20.40;99.90;;;;;;5050770;28;20155;-66
2022/08/25 02:54:22;;;;;;;6.97;4.05;;;20.40;99.90;;;;;;5041101;28;20048;-64
2022/08/25 02:56:48;;;;;;;5.97;3.92;;;20.30;99.90;;;;;;5053524;28;20037;-64
2022/08/25 02:59:14;;;;;;;5.97;3.90;;;20.30;99.90;;;;;;5028230;28;20042;-64
2022/08/25 03:01:40;;;;;;;5.85;3.95;;;20.30;99.90;;;;;;5030893;28;20040;-65
2022/08/25 03:04:06;;;;;;;4.30;3.50;;;20.30;99.90;;;;;;5046918;28;20580;-64
2022/08/25 03:06:31;;;;;;;5.38;3.78;;;20.30;99.90;;;;;;5019455;28;20084;-65
2022/08/25 03:08:57;;;;;;;6.95;4.20;;;20.30;99.90;;;;;;5024473;28;20068;-64
2022/08/25 03:11:25;;;;;;;4.15;3.33;;;20.20;99.90;;;;;;5046483;28;20484;-64
2022/08/25 03:13:51;;;;;;;5.20;3.75;;;20.20;99.90;;;;;;5044265;28;20029;-64
2022/08/25 03:16:17;;;;;;;7.60;4.10;;;20.20;99.90;;;;;;5050620;28;20036;-64
2022/08/25 03:18:43;;;;;;;6.57;3.72;;;20.20;99.90;;;;;;5019973;28;20487;-64
2022/08/25 03:21:10;;;;;;;8.07;4.70;;;20.20;99.90;;;;;;5028123;28;20048;-64
2022/08/25 03:23:36;;;;;;;5.53;3.78;;;20.20;99.90;;;;;;5049439;28;20098;-65
2022/08/25 03:28:46;;;;;;;8.20;4.03;;;20.10;99.90;;;;;;5030769;28;20514;-64
2022/08/25 03:31:12;;;;;;;7.85;4.10;;;20.10;99.90;;;;;;5048155;28;20115;-64
2022/08/25 03:33:38;;;;;;;7.57;3.88;;;20.00;99.90;;;;;;5004907;28;20073;-65
2022/08/25 03:36:07;;;;;;;8.35;3.95;;;20.10;99.90;;;;;;5046370;28;20072;-68
2022/08/25 03:38:33;;;;;;;8.70;4.38;;;20.00;99.90;;;;;;5042648;28;20036;-64
2022/08/25 03:40:58;;;;;;;6.75;3.75;;;20.00;99.90;;;;;;5033292;28;20048;-64
2022/08/25 03:43:24;;;;;;;7.22;4.13;;;20.00;99.90;;;;;;5050535;28;20501;-66
2022/08/25 03:45:50;;;;;;;5.07;3.58;;;20.00;99.90;;;;;;5045963;28;20037;-64
2022/08/25 03:48:16;;;;;;;6.75;4.28;;;20.00;99.90;;;;;;5044173;28;20068;-65
2022/08/25 03:50:50;;;;;;;7.25;3.80;;;19.90;99.90;;;;;;5043350;28;20129;-64
2022/08/25 03:53:15;;;;;;;7.28;3.53;;;19.90;99.90;;;;;;5046327;28;20033;-64
2022/08/25 03:55:41;;;;;;;5.13;3.60;;;19.90;99.90;;;;;;5019347;28;20037;-64
2022/08/25 03:58:07;;;;;;;12.48;4.13;;;19.90;99.90;;;;;;5045144;28;20040;-65
2022/08/25 04:00:32;;;;;;;5.20;3.70;;;19.90;99.90;;;;;;5029386;28;20041;-66
2022/08/25 04:02:58;;;;;;;7.35;3.85;;;19.90;99.90;;;;;;5030730;28;20487;-64
2022/08/25 04:05:24;;;;;;;5.15;3.45;;;19.90;99.90;;;;;;5023428;28;20503;-64
2022/08/25 04:07:49;;;;;;;6.50;4.15;;;19.80;99.90;;;;;;5049278;28;20491;-64
2022/08/25 04:10:15;;;;;;;6.10;4.00;;;19.80;99.90;;;;;;5036211;28;20090;-64
2022/08/25 04:12:41;;;;;;;5.95;3.92;;;19.80;99.90;;;;;;5033787;28;20091;-64
2022/08/25 04:15:08;;;;;;;6.97;3.88;;;19.80;99.90;;;;;;5042566;28;20040;-65
2022/08/25 04:17:36;;;;;;;5.80;3.70;;;19.80;99.90;;;;;;5035150;28;20068;-64
2022/08/25 04:20:03;;;;;;;6.20;3.83;;;19.70;99.90;;;;;;5045214;28;20447;-64
2022/08/25 04:22:29;;;;;;;7.35;3.63;;;19.70;99.90;;;;;;5029289;28;20402;-64
2022/08/25 04:24:56;;;;;;;6.15;4.13;;;19.70;99.90;;;;;;5026614;28;20045;-66
2022/08/25 04:27:22;;;;;;;8.07;4.05;;;19.70;99.90;;;;;;5035685;28;20050;-65
2022/08/25 04:29:48;;;;;;;8.15;3.55;;;19.70;99.90;;;;;;5047773;28;20465;-64
2022/08/25 04:32:13;;;;;;;6.22;3.72;;;19.70;99.90;;;;;;5023035;28;20045;-66
2022/08/25 04:34:40;;;;;;;7.18;3.83;;;19.60;99.90;;;;;;5057787;28;20088;-64
2022/08/25 04:37:06;;;;;;;8.75;3.80;;;19.60;99.90;;;;;;5049743;28;20040;-67
2022/08/25 04:39:32;;;;;;;7.22;3.70;;;19.60;99.90;;;;;;5045055;28;20104;-65
2022/08/25 04:41:59;;;;;;;7.53;3.88;;;19.60;99.90;;;;;;5024823;28;20030;-64
2022/08/25 04:44:25;;;;;;;6.30;3.78;;;19.60;99.90;;;;;;5050377;28;20040;-64
2022/08/25 04:46:50;;;;;;;5.10;3.75;;;19.50;99.90;;;;;;5037889;28;20033;-64
2022/08/25 04:49:16;;;;;;;7.10;3.70;;;19.60;99.90;;;;;;5038030;28;20086;-65
2022/08/25 04:51:43;;;;;;;6.28;3.70;;;19.60;99.90;;;;;;5044334;28;20112;-67
2022/08/25 04:54:20;;;;;;;5.32;3.60;;;19.60;99.90;;;;;;5038023;28;20411;-64
2022/08/25 04:56:48;;;;;;;8.38;3.92;;;19.60;99.90;;;;;;5021342;28;20418;-64
2022/08/25 04:59:15;;;;;;;7.15;3.95;;;19.60;99.90;;;;;;5015245;28;20045;-64
2022/08/25 05:01:42;;;;;;;8.23;3.95;;;19.60;99.90;;;;;;5036584;28;20036;-64
2022/08/25 05:04:10;;;;;;;5.65;3.72;;;19.60;99.90;;;;;;5035221;28;20037;-64
2022/08/25 05:06:36;;;;;;;8.93;3.92;;;19.60;99.90;;;;;;5016556;28;20115;-64
2022/08/25 05:09:03;;;;;;;7.60;4.07;;;19.60;99.90;;;;;;5027113;28;20507;-64
2022/08/25 05:11:28;;;;;;;7.90;3.55;;;19.60;99.90;;;;;;5030106;28;21889;-67
2022/08/25 05:13:55;;;;;;;7.47;3.50;;;19.50;99.90;;;;;;5047693;28;20032;-64
2022/08/25 05:16:23;;;;;;;7.55;3.63;;;19.60;99.90;;;;;;5031217;28;20048;-67
2022/08/25 05:18:50;;;;;;;7.07;3.78;;;19.60;99.90;;;;;;5049144;28;20029;-65
2022/08/25 05:21:19;;;;;;;7.28;3.80;;;19.60;99.90;;;;;;5029523;28;20052;-64
2022/08/25 05:23:46;;;;;;;5.35;3.63;;;19.50;99.90;;;;;;5031106;28;20053;-65
2022/08/25 05:26:14;;;;;;;7.15;3.78;;;19.60;99.90;;;;;;5025576;28;20045;-64
2022/08/25 05:28:41;;;;;;;6.65;3.70;;;19.50;99.90;;;;;;5046881;28;20044;-64
2022/08/25 05:31:08;;;;;;;8.73;3.53;;;19.60;99.90;;;;;;5040035;28;20079;-65
2022/08/25 05:33:34;;;;;;;7.70;3.63;;;19.60;99.90;;;;;;5041427;28;20152;-66
2022/08/25 05:36:00;;;;;;;9.35;3.72;;;19.60;99.90;;;;;;5042544;28;20045;-66
2022/08/25 05:38:26;;;;;;;6.32;3.60;;;19.60;99.90;;;;;;5047178;28;20025;-65
2022/08/25 05:41:03;;;;;;;7.88;4.07;;;19.60;99.90;;;;;;5022957;28;20040;-64
2022/08/25 05:43:30;;;;;;;6.97;4.10;;;19.60;99.90;;;;;;5035167;28;20033;-67
2022/08/25 05:45:57;;;;;;;6.05;3.95;;;19.70;99.90;;;;;;5045200;28;20078;-65
2022/08/25 05:48:24;;;;;;;12.85;3.92;;;19.70;99.90;;;;;;5045259;28;20044;-64
2022/08/25 05:50:55;;;;;;;7.00;3.80;;;19.70;99.90;;;;;;5023858;28;20041;-65
2022/08/25 05:53:21;;;;;;;5.40;3.40;;;19.70;99.90;;;;;;5039400;28;20038;-65
2022/08/25 05:55:49;;;;;;;6.05;3.80;;;19.70;99.90;;;;;;5041532;28;20063;-65
2022/08/25 05:58:15;;;;;;;6.38;3.97;;;19.70;99.90;;;;;;5042845;28;20029;-64
2022/08/25 06:00:40;;;;;;;8.02;4.18;;;19.70;99.90;;;;;;5029570;28;20463;-64
2022/08/25 06:03:06;;;;;;;5.47;4.05;;;19.70;99.90;;;;;;5039194;28;20044;-66
2022/08/25 06:05:32;;;;;;;8.25;4.10;;;19.70;99.90;;;;;;5036467;28;20488;-64
2022/08/25 06:07:57;;;;;;;9.70;4.55;;;19.70;99.90;;;;;;5023419;28;20033;-65
2022/08/25 06:10:24;;;;;;;11.23;4.30;;;19.70;99.90;;;;;;5032481;28;20033;-63
2022/08/25 06:12:50;;;;;;;7.22;3.60;;;19.80;99.90;;;;;;5036435;28;20069;-63
2022/08/25 06:15:18;;;;;;;6.43;3.78;;;19.80;99.90;;;;;;5040609;28;20159;-65
2022/08/25 06:17:44;;;;;;;5.85;3.85;;;19.80;99.90;;;;;;5022374;28;20051;-65
2022/08/25 06:20:14;;;;;;;7.32;4.25;;;19.80;99.90;;;;;;5041107;28;20408;-64
2022/08/25 06:22:40;;;;;;;8.55;4.00;;;19.80;99.90;;;;;;5027250;28;20395;-66
2022/08/25 06:25:08;;;;;;;10.20;4.28;;;19.80;99.90;;;;;;5024911;28;20116;-63
2022/08/25 06:27:34;;;;;;;7.68;4.03;;;19.80;99.90;;;;;;5025716;28;20053;-63
2022/08/25 06:30:03;;;;;;;5.05;3.65;;;19.90;99.90;;;;;;5023853;28;20055;-63
2022/08/25 06:32:34;;;;;;;6.93;4.32;;;19.90;99.90;;;;;;5038875;28;20108;-63
2022/08/25 06:35:01;;;;;;;8.82;4.00;;;19.90;99.90;;;;;;5047510;28;20033;-64
2022/08/25 06:37:27;;;;;;;8.52;4.47;;;19.90;99.90;;;;;;5039741;28;20095;-65
2022/08/25 06:39:52;;;;;;;5.28;4.30;;;19.90;99.90;;;;;;5019667;28;20041;-63
2022/08/25 06:42:18;;;;;;;9.25;4.40;;;19.90;99.90;;;;;;5016997;28;20037;-63
2022/08/25 06:44:44;;;;;;;13.98;4.63;;;20.00;99.90;;;;;;5041279;28;20037;-63
2022/08/25 06:47:09;;;;;;;10.23;4.03;;;20.00;99.90;;;;;;5036467;28;20037;-66
2022/08/25 06:49:35;;;;;;;7.40;4.57;;;20.10;99.90;;;;;;5024183;28;20063;-65
2022/08/25 06:52:01;;;;;;;9.60;4.50;;;20.10;99.90;;;;;;5036065;28;20515;-63
2022/08/25 06:54:26;;;;;;;6.32;4.22;;;20.10;99.90;;;;;;5038101;28;20483;-63
2022/08/25 06:56:52;;;;;;;10.90;4.30;;;20.10;99.90;;;;;;5046060;28;20033;-64
2022/08/25 06:59:18;;;;;;;7.20;4.32;;;20.20;99.90;;;;;;5057202;28;20120;-64
2022/08/25 07:01:44;;;;;;;7.03;4.57;;;20.20;99.90;;;;;;5046783;28;20767;-64
2022/08/25 07:04:11;;;;;;;8.07;3.90;;;20.30;99.90;;;;;;5031501;28;20041;-66
2022/08/25 07:06:36;;;;;;;8.85;3.97;;;20.30;99.90;;;;;;5050616;28;20041;-63
2022/08/25 07:09:05;;;;;;;6.47;4.03;;;20.30;99.90;;;;;;5044448;28;20056;-64
2022/08/25 07:11:33;;;;;;;9.27;4.05;;;20.40;99.90;;;;;;5031586;28;20053;-64
2022/08/25 07:14:00;;;;;;;9.90;4.07;;;20.40;99.90;;;;;;5043089;28;20125;-65
2022/08/25 07:16:26;;;;;;;7.32;4.05;;;20.50;99.90;;;;;;5046924;28;20095;-64
2022/08/25 07:18:55;;;;;;;9.30;4.00;;;20.50;99.90;;;;;;5028502;28;20037;-64
2022/08/25 07:21:24;;;;;;;11.82;4.68;;;20.50;99.90;;;;;;5020925;28;20056;-64
2022/08/25 07:23:50;;;;;;;10.05;4.22;;;20.60;99.90;;;;;;5048055;28;20072;-64
2022/08/25 07:26:28;;;;;;;6.75;3.97;;;20.60;99.90;;;;;;5032610;28;20076;-64
2022/08/25 07:28:55;;;;;;;9.95;4.63;;;20.70;99.90;;;;;;5022617;28;20517;-65
2022/08/25 07:31:21;;;;;;;6.65;4.40;;;20.80;99.90;;;;;;5042633;28;20068;-64
2022/08/25 07:36:31;;;;;;;8.80;4.57;;;20.90;99.90;;;;;;5040536;28;20054;-64
2022/08/25 07:38:58;;;;;;;8.07;4.30;;;21.00;99.90;;;;;;5041506;28;20040;-64
2022/08/25 07:41:25;;;;;;;6.75;4.43;;;21.00;99.90;;;;;;5013173;28;20048;-63
2022/08/25 07:43:50;;;;;;;7.68;4.63;;;21.10;99.90;;;;;;5049449;28;20041;-63
2022/08/25 07:46:16;;;;;;;6.97;4.53;;;21.20;99.90;;;;;;5044116;28;20086;-64
2022/08/25 07:48:42;;;;;;;7.45;4.60;;;21.30;99.90;;;;;;5028801;28;20048;-64
2022/08/25 07:51:10;;;;;;;7.78;4.85;;;21.40;99.90;;;;;;5028029;28;20037;-64
2022/08/25 07:53:39;;;;;;;8.13;4.70;;;21.40;99.90;;;;;;5048893;28;20041;-65
2022/08/25 07:56:10;;;;;;;7.70;5.07;;;21.50;99.90;;;;;;5027141;28;20471;-64
2022/08/25 07:58:36;;;;;;;8.27;4.85;;;21.60;99.90;;;;;;5036171;28;20053;-65
2022/08/25 08:01:02;;;;;;;7.28;4.32;;;21.70;99.90;;;;;;5021281;28;20040;-64
2022/08/25 08:03:29;;;;;;;6.30;4.10;;;21.70;99.90;;;;;;5047104;28;20487;-64
2022/08/25 08:05:55;;;;;;;11.25;5.10;;;21.80;99.90;;;;;;5038383;28;20040;-64
2022/08/25 08:08:22;;;;;;;10.65;4.72;;;21.90;99.90;;;;;;5028299;28;20055;-64
2022/08/25 08:10:48;;;;;;;6.97;4.20;;;21.90;99.90;;;;;;5044756;28;20033;-65
2022/08/25 08:13:13;;;;;;;6.68;4.43;;;22.00;99.90;;;;;;5038524;28;20040;-65
2022/08/25 08:15:42;;;;;;;8.73;4.57;;;22.10;99.90;;;;;;5052136;28;20450;-64
2022/08/25 08:18:07;;;;;;;7.13;4.32;;;22.20;99.90;;;;;;5046852;28;20499;-64
2022/08/25 08:20:33;;;;;;;5.90;3.90;;;22.20;99.90;;;;;;5025948;28;20088;-64
2022/08/25 08:23:02;;;;;;;9.88;4.13;;;22.30;99.90;;;;;;5024132;28;20036;-64
2022/08/25 08:25:28;;;;;;;9.30;4.68;;;22.30;99.90;;;;;;5042416;28;20032;-64
2022/08/25 08:27:55;;;;;;;7.38;4.10;;;22.40;99.90;;;;;;5030040;28;20041;-64
2022/08/25 08:30:21;;;;;;;5.22;3.90;;;22.50;99.90;;;;;;5044994;28;20372;-64
2022/08/25 08:32:48;;;;;;;6.18;3.60;;;22.60;99.90;;;;;;5047019;28;20399;-64
2022/08/25 08:35:17;;;;;;;7.85;4.60;;;22.70;99.90;;;;;;5050608;28;20081;-64
2022/08/25 08:37:44;;;;;;;6.07;3.92;;;22.80;99.90;;;;;;5044278;28;20037;-64
2022/08/25 08:40:13;;;;;;;5.78;3.75;;;23.00;99.90;;;;;;5046814;28;20568;-64
2022/08/25 08:43:05;;;;;;;10.45;3.53;;;23.20;99.90;;;;;;5026652;28;20117;-64
2022/08/25 08:45:46;;;;;;;7.70;3.80;;;23.30;99.90;;;;;;5037500;28;20513;-64
2022/08/25 08:48:18;;;;;;;7.70;3.50;;;23.50;99.90;;;;;;5049346;28;20618;-64
2022/08/25 08:50:59;;;;;;;;;;;23.70;99.90;;;;;;5018134;28;20311;-64
2022/08/25 08:53:43;;;;;;;5.30;3.53;;;24.00;99.90;;;;;;5007593;28;20378;-64
2022/08/25 08:56:43;;;;;;;9.15;4.07;;;24.20;99.90;;;;;;5020462;28;20052;-64
2022/08/25 08:59:37;;;;;;;7.53;3.20;;;24.50;99.90;;;;;;4993276;28;20063;-66
2022/08/25 09:02:04;;;;;;;6.57;3.70;;;24.80;99.90;;;;;;5021431;28;20045;-65
2022/08/25 09:04:40;;;;;;;7.03;3.47;;;25.00;99.90;;;;;;5043343;28;20442;-65
2022/08/25 09:07:11;;;;;;;8.70;3.50;;;25.30;99.10;;;;;;5024103;28;20060;-65
2022/08/25 09:09:40;;;;;;;7.95;4.07;;;25.50;98.90;;;;;;5024370;28;20041;-66
2022/08/25 09:12:33;;;;;;;6.68;3.58;;;25.70;98.60;;;;;;5044515;28;20032;-65
2022/08/25 09:16:53;;;;;;;7.95;3.40;;;25.90;97.30;;;;;;5035370;28;20037;-65
2022/08/25 09:18:29;;;;;;;5.43;3.47;;;26.10;96.50;;;;;;5043099;28;20045;-64
2022/08/25 09:21:13;;;;;;;6.05;3.38;;;26.30;95.10;;;;;;5024953;28;20048;-65
2022/08/25 09:24:10;;;;;;;5.25;3.10;;;26.50;95.10;;;;;;5048491;28;20041;-65
2022/08/25 09:26:39;;;;;;;7.45;3.15;;;26.70;94.80;;;;;;5015434;28;20503;-64
2022/08/25 09:29:23;;;;;;;5.32;3.03;;;26.90;95.50;;;;;;5029243;28;20487;-65
2022/08/25 09:31:49;;;;;;;5.18;3.00;;;27.00;94.60;;;;;;5042577;28;20137;-65
2022/08/25 09:34:27;;;;;;;5.10;3.25;;;27.10;94.20;;;;;;5048884;28;20510;-65
2022/08/25 09:36:53;;;;;;;8.13;2.78;;;27.40;93.10;;;;;;5015025;28;20032;-65
2022/08/25 09:39:21;;;;;;;6.65;3.10;;;27.50;93.00;;;;;;5045972;28;20040;-65
2022/08/25 09:41:51;;;;;;;7.22;2.92;;;27.70;92.40;;;;;;5044420;28;20051;-65
2022/08/25 09:44:18;;;;;;;4.03;2.80;;;27.90;91.90;;;;;;5037210;28;20029;-65
2022/08/25 09:47:14;;;;;;;5.20;3.28;;;28.00;91.40;;;;;;5015867;28;20037;-65
2022/08/25 09:49:48;;;;;;;3.72;3.10;;;28.20;87.70;;;;;;5029196;28;20049;-65
2022/08/25 09:52:30;;;;;;;5.50;2.85;;;28.30;87.10;;;;;;5036382;28;20455;-65
2022/08/25 09:55:17;;;;;;;6.40;3.42;;;28.40;84.40;;;;;;5001449;28;20042;-65
2022/08/25 09:57:46;;;;;;;6.20;3.20;;;28.50;86.70;;;;;;5023633;28;20555;-65
2022/08/25 10:00:20;;;;;;;4.75;3.03;;;28.70;86.20;;;;;;5041674;28;20136;-65
2022/08/25 10:03:05;;;;;;;4.88;2.90;;;28.80;84.20;;;;;;5038996;28;20047;-65
2022/08/25 10:05:34;;;;;;;7.85;3.28;;;28.90;80.60;;;;;;5032284;28;20407;-65
2022/08/25 10:08:39;;;;;;;6.03;3.30;;;29.00;82.40;;;;;;5031948;28;20037;-64
2022/08/25 10:11:08;;;;;;;6.80;3.03;;;29.10;78.30;;;;;;5018800;28;20046;-65
2022/08/25 10:13:36;;;;;;;4.70;3.10;;;29.20;79.00;;;;;;5049492;28;20487;-65
2022/08/25 10:16:10;;;;;;;5.88;3.40;;;29.20;75.00;;;;;;5020975;28;20044;-65
2022/08/25 10:18:36;;;;;;;7.90;3.10;;;29.30;75.00;;;;;;5022826;28;20053;-65
2022/08/25 10:21:09;;;;;;;4.65;2.83;;;29.30;73.70;;;;;;5040664;28;20463;-65
2022/08/25 10:23:55;;;;;;;4.47;2.80;;;29.50;72.40;;;;;;5046581;28;20097;-66
2022/08/25 10:26:53;;;;;;;4.53;2.80;;;29.60;72.10;;;;;;5045211;28;20490;-65
2022/08/25 10:29:50;;;;;;;5.80;3.15;;;29.70;69.90;;;;;;5045335;28;20049;-66
2022/08/25 10:32:30;;;;;;;4.03;2.65;;;29.80;69.30;;;;;;5015829;28;20403;-65
2022/08/25 10:34:58;;;;;;;6.32;3.35;;;29.90;69.50;;;;;;5046444;28;20040;-65
2022/08/25 10:37:23;;;;;;;5.82;3.05;;;30.00;69.80;;;;;;5043106;28;20067;-65
2022/08/25 10:40:10;;;;;;;5.90;3.00;;;30.10;70.20;;;;;;5041638;28;20037;-65
2022/08/25 10:43:05;;;;;;;3.47;2.70;;;30.20;68.90;;;;;;5027563;28;20076;-65
2022/08/25 10:45:46;;;;;;;5.82;3.10;;;30.40;67.70;;;;;;5015389;28;20048;-65
2022/08/25 10:48:27;;;;;;;;;;;30.40;66.90;;;;;;5019371;28;20048;-65
2022/08/25 10:50:58;;;;;;;5.72;2.97;;;30.40;63.00;;;;;;5036312;28;19975;-65
2022/08/25 10:53:32;;;;;;;5.05;3.00;;;30.40;64.50;;;;;;5042917;28;20067;-65
2022/08/25 10:56:08;;;;;;;4.57;2.97;;;30.40;64.20;;;;;;5030850;28;20033;-66
2022/08/25 10:59:03;;;;;;;7.38;3.00;;;30.50;64.00;;;;;;5019343;28;20045;-66
2022/08/25 11:01:41;;;;;;;4.57;2.78;;;30.50;63.00;;;;;;5017205;28;20120;-65
2022/08/25 11:04:20;;;;;;;4.68;2.97;;;30.70;63.80;;;;;;5033254;28;20048;-65
2022/08/25 11:06:56;;;;;;;4.85;3.03;;;30.70;62.60;;;;;;5022830;28;20055;-65
2022/08/25 11:09:38;;;;;;;4.03;2.55;;;30.80;62.30;;;;;;5044720;28;20033;-65
2022/08/25 11:12:14;;;;;;;4.82;2.67;;;30.80;60.50;;;;;;5022546;28;20048;-66
2022/08/25 11:14:48;;;;;;;4.38;2.88;;;30.90;60.80;;;;;;5029845;28;20080;-65
2022/08/25 11:17:23;;;;;;;4.75;2.78;;;31.00;60.10;;;;;;5037608;28;20038;-65
2022/08/25 11:19:57;;;;;;;6.15;3.55;;;31.10;60.10;;;;;;5022081;28;20043;-65
2022/08/25 11:22:23;;;;;;;4.15;2.78;;;31.30;59.50;;;;;;5036128;28;20029;-65
2022/08/25 11:25:10;;;;;;;5.32;2.80;;;31.30;59.90;;;;;;5040381;28;20167;-66
2022/08/25 11:27:57;;;;;;;6.10;2.53;;;31.40;58.90;;;;;;5020526;28;20129;-65
2022/08/25 11:30:23;;;;;;;6.07;2.90;;;31.40;57.10;;;;;;5019077;28;20100;-65
2022/08/25 11:32:54;;;;;;;4.82;2.80;;;31.40;58.40;;;;;;5038592;28;20541;-66
2022/08/25 11:35:27;;;;;;;;;;;31.40;58.20;;;;;;5042150;28;20048;-65
2022/08/25 11:38:03;;;;;;;4.68;3.25;;;31.50;57.50;;;;;;5028941;28;19917;-66
2022/08/25 11:40:37;;;;;;;2.90;2.40;;;31.50;58.00;;;;;;5038374;28;20439;-66
2022/08/25 11:43:24;;;;;;;4.80;2.88;;;31.60;57.70;;;;;;5018517;28;20079;-65
2022/08/25 11:45:50;;;;;;;4.10;2.55;;;31.60;56.90;;;;;;5012122;28;20095;-65
2022/08/25 11:48:28;;;;;;;4.85;2.60;;;31.60;57.20;;;;;;5016175;28;20049;-65
2022/08/25 11:50:58;;;;;;;3.80;2.63;;;31.70;56.20;;;;;;5019049;28;20436;-65
2022/08/25 11:53:25;;;;;;;3.90;2.53;;;31.70;56.60;;;;;;5033745;28;20037;-65
2022/08/25 11:55:55;;;;;;;6.80;2.55;;;31.70;55.90;;;;;;5037650;28;20037;-65
2022/08/25 11:58:26;;;;;;;4.30;2.85;;;31.80;55.60;;;;;;5015030;28;20391;-65
2022/08/25 12:00:53;;;;;;;3.03;2.50;;;31.80;53.90;;;;;;5018771;28;20084;-66
2022/08/25 12:03:31;;;;;;;3.40;2.30;;;31.70;53.50;;;;;;5017572;28;20053;-65
2022/08/25 12:06:14;;;;;;;3.83;2.20;;;31.70;53.20;;;;;;5017356;28;20040;-65
2022/08/25 12:09:01;;;;;;;3.50;2.10;;;31.80;52.70;;;;;;5015852;28;20049;-65
2022/08/25 12:11:36;;;;;;;5.60;2.60;;;31.80;52.30;;;;;;5012531;28;20055;-65
2022/08/25 12:14:20;;;;;;;2.78;2.20;;;31.80;50.90;;;;;;5020414;28;20045;-66
2022/08/25 12:16:55;;;;;;;2.17;1.98;;;31.70;51.70;;;;;;5027935;28;20036;-66
2022/08/25 12:19:27;;;;;;;4.35;2.30;;;31.80;52.20;;;;;;5017615;28;20049;-65
2022/08/25 12:21:55;;;;;;;3.47;2.20;;;31.70;51.30;;;;;;5020898;28;20116;-65
2022/08/25 12:24:41;;;;;;;6.03;2.40;;;31.80;52.00;;;;;;5034042;28;20506;-66
2022/08/25 12:27:31;;;;;;;3.55;2.38;;;31.80;51.30;;;;;;4995526;28;20056;-65
2022/08/25 12:30:09;;;;;;;3.47;2.40;;;32.00;51.10;;;;;;5029377;28;20045;-65
2022/08/25 12:32:51;;;;;;;2.40;2.20;;;32.00;51.90;;;;;;5030628;28;20466;-65
2022/08/25 12:35:23;;;;;;;2.63;1.90;;;32.00;50.70;;;;;;5027274;28;20037;-65
2022/08/25 12:37:55;;;;;;;2.20;2.00;;;32.00;50.10;;;;;;5035790;28;20112;-65
2022/08/25 12:40:51;;;;;;;6.15;2.47;;;32.00;50.10;;;;;;5003907;28;20038;-65
2022/08/25 12:43:31;;;;;;;4.75;2.63;;;31.90;50.60;;;;;;5030974;28;20028;-65
2022/08/25 12:46:18;;;;;;;2.72;2.40;;;32.00;51.50;;;;;;5010119;28;20394;-65
2022/08/25 12:49:11;;;;;;;3.53;2.42;;;31.90;51.60;;;;;;5039024;28;20060;-66
2022/08/25 12:51:42;;;;;;;3.65;2.10;;;32.00;51.90;;;;;;5021860;28;20045;-65
2022/08/25 12:54:31;;;;;;;3.33;2.25;;;32.10;52.10;;;;;;5033396;28;20167;-65
2022/08/25 12:57:01;;;;;;;4.20;2.35;;;32.10;51.80;;;;;;5026803;28;20041;-65
2022/08/25 12:59:33;;;;;;;;;;;32.10;51.80;;;;;;5011637;28;20033;-65
2022/08/25 13:02:18;;;;;;;3.72;2.40;;;32.20;50.70;;;;;;5016817;28;20576;-65
2022/08/25 13:04:54;;;;;;;3.20;2.20;;;32.10;49.60;;;;;;5013818;28;20052;-66
2022/08/25 13:07:48;;;;;;;2.30;2.10;;;32.10;50.50;;;;;;5020004;28;20049;-66
2022/08/25 13:10:33;;;;;;;2.35;2.15;;;32.00;50.50;;;;;;4976518;28;1073935;-66
2022/08/25 13:16:29;;;;;;;3.00;2.28;;;32.00;51.40;;;;;;5037300;28;20045;-67